createdAt,value
2022-11-23T00:00:12.087Z,44.30
2022-11-23T00:00:34.070Z,44.19
2022-11-23T00:00:55.696Z,44.40
2022-11-23T00:01:20.526Z,44.20
2022-11-23T00:01:42.120Z,44.35
2022-11-23T00:02:03.851Z,44.23
2022-11-23T00:02:25.513Z,44.21
2022-11-23T00:02:48.142Z,44.18
2022-11-23T00:03:14.666Z,44.08
2022-11-23T00:03:36.304Z,44.29
2022-11-23T00:04:00.927Z,44.25
2022-11-23T00:04:24.925Z,44.25
2022-11-23T00:04:46.563Z,44.41
2022-11-23T00:05:08.842Z,44.26
2022-11-23T00:05:31.189Z,44.30
2022-11-23T00:05:53.850Z,44.28
2022-11-23T00:06:16.255Z,44.24
2022-11-23T00:06:38.397Z,44.42
2022-11-23T00:07:00.970Z,44.24
2022-11-23T00:07:22.623Z,44.33
2022-11-23T00:07:44.335Z,44.40
2022-11-23T00:08:06.340Z,44.00
2022-11-23T00:08:27.914Z,44.38
2022-11-23T00:08:51.357Z,44.01
2022-11-23T00:09:13.004Z,44.03
2022-11-23T00:09:34.571Z,44.17
2022-11-23T00:09:56.161Z,44.09
2022-11-23T00:10:18.406Z,43.84
2022-11-23T00:10:40.983Z,44.12
2022-11-23T00:11:02.691Z,44.01
2022-11-23T00:11:25.688Z,44.03
2022-11-23T00:11:48.243Z,43.88
2022-11-23T00:12:09.951Z,44.26
2022-11-23T00:12:33.243Z,43.98
2022-11-23T00:12:54.857Z,44.12
2022-11-23T00:13:16.455Z,44.10
2022-11-23T00:13:40.474Z,44.19
2022-11-23T00:14:02.429Z,44.16
2022-11-23T00:14:24.089Z,44.27
2022-11-23T00:14:45.683Z,44.27
2022-11-23T00:15:09.007Z,43.96
2022-11-23T00:15:30.630Z,44.17
2022-11-23T00:15:52.276Z,44.04
2022-11-23T00:16:15.650Z,44.00
2022-11-23T00:16:38.346Z,44.08
2022-11-23T00:17:00.106Z,43.91
2022-11-23T00:17:21.864Z,44.08
2022-11-23T00:17:43.475Z,43.78
2022-11-23T00:18:05.417Z,43.84
2022-11-23T00:18:27.282Z,44.02
2022-11-23T00:18:51.345Z,44.12
2022-11-23T00:19:12.918Z,44.04
2022-11-23T00:19:34.623Z,44.08
2022-11-23T00:19:56.267Z,43.90
2022-11-23T00:20:18.928Z,43.88
2022-11-23T00:20:40.652Z,44.00
2022-11-23T00:21:06.748Z,43.91
2022-11-23T00:21:30.830Z,44.00
2022-11-23T00:21:52.415Z,44.15
2022-11-23T00:22:13.986Z,44.00
2022-11-23T00:22:35.875Z,44.17
2022-11-23T00:22:57.546Z,44.50
2022-11-23T00:23:20.075Z,44.35
2022-11-23T00:23:42.631Z,43.86
2022-11-23T00:24:04.918Z,43.74
2022-11-23T00:24:27.514Z,43.88
2022-11-23T00:24:49.302Z,44.00
2022-11-23T00:25:10.927Z,43.80
2022-11-23T00:25:32.486Z,43.84
2022-11-23T00:25:54.078Z,44.07
2022-11-23T00:26:17.815Z,44.02
2022-11-23T00:26:39.444Z,43.78
2022-11-23T00:27:01.067Z,43.83
2022-11-23T00:27:22.732Z,43.92
2022-11-23T00:27:46.594Z,43.92
2022-11-23T00:28:08.193Z,43.92
2022-11-23T00:28:30.054Z,44.10
2022-11-23T00:28:52.812Z,44.01
2022-11-23T00:29:14.450Z,44.09
2022-11-23T00:29:36.049Z,43.99
2022-11-23T00:29:57.670Z,44.39
2022-11-23T00:30:20.228Z,44.27
2022-11-23T00:30:42.765Z,44.19
2022-11-23T00:31:04.678Z,44.20
2022-11-23T00:31:26.315Z,44.47
2022-11-23T00:31:47.959Z,44.55
2022-11-23T00:32:10.551Z,44.39
2022-11-23T00:32:32.335Z,44.86
2022-11-23T00:32:54.772Z,44.90
2022-11-23T00:33:16.508Z,44.76
2022-11-23T00:33:38.220Z,44.68
2022-11-23T00:34:00.839Z,44.54
2022-11-23T00:34:22.681Z,44.33
2022-11-23T00:34:45.858Z,44.36
2022-11-23T00:35:08.210Z,44.49
2022-11-23T00:35:30.747Z,44.32
2022-11-23T00:35:59.499Z,44.49
2022-11-23T00:36:22.226Z,44.39
2022-11-23T00:36:44.857Z,44.43
2022-11-23T00:37:06.523Z,44.49
2022-11-23T00:37:28.193Z,44.36
2022-11-23T00:37:49.871Z,44.58
2022-11-23T00:38:11.580Z,44.58
2022-11-23T00:38:34.486Z,44.55
2022-11-23T00:38:57.615Z,44.26
2022-11-23T00:39:19.338Z,44.20
2022-11-23T00:39:41.951Z,44.50
2022-11-23T00:40:04.341Z,44.45
2022-11-23T00:40:25.946Z,44.37
2022-11-23T00:40:47.571Z,44.24
2022-11-23T00:41:12.217Z,44.32
2022-11-23T00:41:34.779Z,44.54
2022-11-23T00:41:57.384Z,44.34
2022-11-23T00:42:19.029Z,44.42
2022-11-23T00:42:40.642Z,44.45
2022-11-23T00:43:03.714Z,44.41
2022-11-23T00:43:27.010Z,44.25
2022-11-23T00:43:48.922Z,44.57
2022-11-23T00:44:10.804Z,44.79
2022-11-23T00:44:32.418Z,44.62
2022-11-23T00:44:54.995Z,44.69
2022-11-23T00:45:16.892Z,44.58
2022-11-23T00:45:38.484Z,44.47
2022-11-23T00:46:07.990Z,44.66
2022-11-23T00:46:30.593Z,44.32
2022-11-23T00:46:52.215Z,44.52
2022-11-23T00:47:15.275Z,44.63
2022-11-23T00:47:37.229Z,44.64
2022-11-23T00:48:00.076Z,44.63
2022-11-23T00:48:22.646Z,44.89
2022-11-23T00:48:47.873Z,44.99
2022-11-23T00:49:10.012Z,44.67
2022-11-23T00:49:31.892Z,44.95
2022-11-23T00:49:54.651Z,44.90
2022-11-23T00:50:16.908Z,45.02
2022-11-23T00:50:38.470Z,45.03
2022-11-23T00:51:00.863Z,45.02
2022-11-23T00:51:26.490Z,45.12
2022-11-23T00:51:48.162Z,44.80
2022-11-23T00:52:09.760Z,45.00
2022-11-23T00:52:31.484Z,44.83
2022-11-23T00:52:53.095Z,44.99
2022-11-23T00:53:15.650Z,44.62
2022-11-23T00:53:37.988Z,44.89
2022-11-23T00:54:00.664Z,44.99
2022-11-23T00:54:22.257Z,44.66
2022-11-23T00:54:44.841Z,44.55
2022-11-23T00:55:07.209Z,44.40
2022-11-23T00:55:28.812Z,44.47
2022-11-23T00:55:51.711Z,44.70
2022-11-23T00:56:15.046Z,44.38
2022-11-23T00:56:36.630Z,44.41
2022-11-23T00:56:58.243Z,44.67
2022-11-23T00:57:20.660Z,44.48
2022-11-23T00:57:42.241Z,44.38
2022-11-23T00:58:06.240Z,44.20
2022-11-23T00:58:28.639Z,44.15
2022-11-23T00:58:50.750Z,44.57
2022-11-23T00:59:13.552Z,44.20
2022-11-23T00:59:35.122Z,44.50
2022-11-23T00:59:56.710Z,44.32
2022-11-23T01:00:20.045Z,44.51
2022-11-23T01:00:41.698Z,44.30
2022-11-23T01:01:06.860Z,44.28
2022-11-23T01:01:33.612Z,44.29
2022-11-23T01:01:55.430Z,44.20
2022-11-23T01:02:17.095Z,44.23
2022-11-23T01:02:39.681Z,44.25
2022-11-23T01:03:01.324Z,44.01
2022-11-23T01:03:23.518Z,44.00
2022-11-23T01:03:49.592Z,43.95
2022-11-23T01:04:11.263Z,44.20
2022-11-23T01:04:32.949Z,44.05
2022-11-23T01:04:54.796Z,43.93
2022-11-23T01:05:16.432Z,44.23
2022-11-23T01:05:39.551Z,44.04
2022-11-23T01:06:09.437Z,44.19
2022-11-23T01:06:32.864Z,44.09
2022-11-23T01:06:57.268Z,44.36
2022-11-23T01:07:18.913Z,44.24
2022-11-23T01:07:40.556Z,44.08
2022-11-23T01:08:02.799Z,44.27
2022-11-23T01:08:25.765Z,44.14
2022-11-23T01:08:50.713Z,44.24
2022-11-23T01:09:14.596Z,44.28
2022-11-23T01:09:36.188Z,44.25
2022-11-23T01:09:57.896Z,44.41
2022-11-23T01:10:19.475Z,44.27
2022-11-23T01:10:42.062Z,44.23
2022-11-23T01:11:05.973Z,44.17
2022-11-23T01:11:31.283Z,44.15
2022-11-23T01:11:53.711Z,44.29
2022-11-23T01:12:22.019Z,44.49
2022-11-23T01:12:43.612Z,44.25
2022-11-23T01:13:06.614Z,44.21
2022-11-23T01:13:28.608Z,44.57
2022-11-23T01:13:51.274Z,44.43
2022-11-23T01:14:13.253Z,44.56
2022-11-23T01:14:35.200Z,44.52
2022-11-23T01:14:59.640Z,44.76
2022-11-23T01:15:23.749Z,44.87
2022-11-23T01:15:50.638Z,44.87
2022-11-23T01:16:22.261Z,44.92
2022-11-23T01:16:46.458Z,44.65
2022-11-23T01:17:08.057Z,44.66
2022-11-23T01:17:29.937Z,44.53
2022-11-23T01:17:51.579Z,44.72
2022-11-23T01:18:14.194Z,44.93
2022-11-23T01:18:35.819Z,44.74
2022-11-23T01:18:59.510Z,44.81
2022-11-23T01:19:21.348Z,44.78
2022-11-23T01:19:44.381Z,44.66
2022-11-23T01:20:10.373Z,45.03
2022-11-23T01:20:34.836Z,45.12
2022-11-23T01:20:56.444Z,44.44
2022-11-23T01:21:18.015Z,44.86
2022-11-23T01:21:40.915Z,44.69
2022-11-23T01:22:02.555Z,44.60
2022-11-23T01:22:24.245Z,44.56
2022-11-23T01:22:45.851Z,44.71
2022-11-23T01:23:07.421Z,44.49
2022-11-23T01:23:30.143Z,44.76
2022-11-23T01:23:52.200Z,44.92
2022-11-23T01:24:16.775Z,44.65
2022-11-23T01:24:39.370Z,44.81
2022-11-23T01:25:04.745Z,44.79
2022-11-23T01:25:26.385Z,44.97
2022-11-23T01:25:50.895Z,44.90
2022-11-23T01:26:17.876Z,45.02
2022-11-23T01:26:39.808Z,44.88
2022-11-23T01:27:01.406Z,44.77
2022-11-23T01:27:23.562Z,44.78
2022-11-23T01:27:46.569Z,44.58
2022-11-23T01:28:10.523Z,44.42
2022-11-23T01:28:32.127Z,44.09
2022-11-23T01:28:53.705Z,44.39
2022-11-23T01:29:19.657Z,44.23
2022-11-23T01:29:41.293Z,44.52
2022-11-23T01:30:03.138Z,44.62
2022-11-23T01:30:27.260Z,44.53
2022-11-23T01:30:49.873Z,44.71
2022-11-23T01:31:14.034Z,44.44
2022-11-23T01:31:35.778Z,44.60
2022-11-23T01:31:57.357Z,44.68
2022-11-23T01:32:19.979Z,44.62
2022-11-23T01:32:41.603Z,44.56
2022-11-23T01:33:03.830Z,44.52
2022-11-23T01:33:25.392Z,44.36
2022-11-23T01:33:48.784Z,44.92
2022-11-23T01:34:11.687Z,44.67
2022-11-23T01:35:09.514Z,44.85
2022-11-23T01:35:32.303Z,44.72
2022-11-23T01:35:53.908Z,44.78
2022-11-23T01:36:17.450Z,44.57
2022-11-23T01:36:40.018Z,44.87
2022-11-23T01:37:01.664Z,44.58
2022-11-23T01:37:23.248Z,44.68
2022-11-23T01:37:46.402Z,44.67
2022-11-23T01:38:16.670Z,44.92
2022-11-23T01:38:39.823Z,44.73
2022-11-23T01:39:03.815Z,45.07
2022-11-23T01:39:25.529Z,44.85
2022-11-23T01:39:48.262Z,44.83
2022-11-23T01:40:12.118Z,44.89
2022-11-23T01:40:40.158Z,44.48
2022-11-23T01:41:01.819Z,44.87
2022-11-23T01:41:25.148Z,44.87
2022-11-23T01:41:46.898Z,44.97
2022-11-23T01:42:11.824Z,44.97
2022-11-23T01:42:43.299Z,44.88
2022-11-23T01:43:07.092Z,45.07
2022-11-23T01:43:30.024Z,45.03
2022-11-23T01:43:53.081Z,44.96
2022-11-23T01:44:26.519Z,44.93
2022-11-23T01:44:48.907Z,45.03
2022-11-23T01:45:34.454Z,45.12
2022-11-23T01:45:57.338Z,44.77
2022-11-23T01:46:19.396Z,44.52
2022-11-23T01:46:42.016Z,44.52
2022-11-23T01:47:05.949Z,44.58
2022-11-23T01:47:28.028Z,44.56
2022-11-23T01:47:49.637Z,44.32
2022-11-23T01:48:16.612Z,44.44
2022-11-23T01:48:43.267Z,44.31
2022-11-23T01:49:07.610Z,44.43
2022-11-23T01:49:33.623Z,44.38
2022-11-23T01:49:55.891Z,44.43
2022-11-23T01:50:17.615Z,44.54
2022-11-23T01:50:40.970Z,44.25
2022-11-23T01:51:04.924Z,44.36
2022-11-23T01:51:30.495Z,44.33
2022-11-23T01:51:56.804Z,44.70
2022-11-23T01:52:23.776Z,44.53
2022-11-23T01:52:45.430Z,44.47
2022-11-23T01:53:07.086Z,44.36
2022-11-23T01:53:30.040Z,44.60
2022-11-23T01:53:58.367Z,44.30
2022-11-23T01:54:24.639Z,44.44
2022-11-23T01:54:49.246Z,44.68
2022-11-23T01:55:11.087Z,44.53
2022-11-23T01:55:33.317Z,44.82
2022-11-23T01:56:00.208Z,44.39
2022-11-23T01:56:28.656Z,44.11
2022-11-23T01:56:53.766Z,44.33
2022-11-23T01:57:21.015Z,44.05
2022-11-23T01:57:45.526Z,44.01
2022-11-23T01:58:09.080Z,44.19
2022-11-23T01:58:36.147Z,44.20
2022-11-23T01:59:05.355Z,44.54
2022-11-23T01:59:28.656Z,44.46
2022-11-23T02:00:15.166Z,44.19
2022-11-23T02:00:38.747Z,44.18
2022-11-23T02:01:03.250Z,44.22
2022-11-23T02:01:24.963Z,44.27
2022-11-23T02:01:46.654Z,44.21
2022-11-23T02:02:08.383Z,44.43
2022-11-23T02:02:33.687Z,44.43
2022-11-23T02:02:58.474Z,44.28
2022-11-23T02:03:20.162Z,44.34
2022-11-23T02:03:43.490Z,44.29
2022-11-23T02:04:09.510Z,44.23
2022-11-23T02:04:33.944Z,44.29
2022-11-23T02:04:57.533Z,44.61
2022-11-23T02:05:22.308Z,44.66
2022-11-23T02:05:47.638Z,44.74
2022-11-23T02:06:13.685Z,44.72
2022-11-23T02:06:35.382Z,44.52
2022-11-23T02:07:00.623Z,44.09
2022-11-23T02:07:24.012Z,44.21
2022-11-23T02:07:48.016Z,43.94
2022-11-23T02:08:11.710Z,44.38
2022-11-23T02:08:34.382Z,44.24
2022-11-23T02:08:58.551Z,44.53
2022-11-23T02:09:22.570Z,44.65
2022-11-23T02:09:46.603Z,44.67
2022-11-23T02:10:09.018Z,45.11
2022-11-23T02:10:32.590Z,45.21
2022-11-23T02:10:55.723Z,44.59
2022-11-23T02:11:19.831Z,44.58
2022-11-23T02:11:42.998Z,44.50
2022-11-23T02:12:12.391Z,44.48
2022-11-23T02:12:34.125Z,44.76
2022-11-23T02:12:55.849Z,44.58
2022-11-23T02:13:17.623Z,44.65
2022-11-23T02:13:44.778Z,44.58
2022-11-23T02:14:07.430Z,44.48
2022-11-23T02:14:29.288Z,44.14
2022-11-23T02:14:51.051Z,44.21
2022-11-23T02:15:14.204Z,44.39
2022-11-23T02:15:37.500Z,44.34
2022-11-23T02:15:59.588Z,44.28
2022-11-23T02:16:21.147Z,44.41
2022-11-23T02:16:42.806Z,44.49
2022-11-23T02:17:05.052Z,44.18
2022-11-23T02:17:27.617Z,44.14
2022-11-23T02:17:49.302Z,44.36
2022-11-23T02:18:15.782Z,44.52
2022-11-23T02:18:41.483Z,44.47
2022-11-23T02:19:09.466Z,44.50
2022-11-23T02:19:41.635Z,44.35
2022-11-23T02:20:08.632Z,44.27
2022-11-23T02:20:31.839Z,44.35
2022-11-23T02:20:54.344Z,44.10
2022-11-23T02:21:16.200Z,44.40
2022-11-23T02:21:43.131Z,44.28
2022-11-23T02:22:13.543Z,44.02
2022-11-23T02:22:42.180Z,44.12
2022-11-23T02:23:16.387Z,44.10
2022-11-23T02:23:47.445Z,43.98
2022-11-23T02:24:15.446Z,43.82
2022-11-23T02:24:45.393Z,44.10
2022-11-23T02:25:13.451Z,44.53
2022-11-23T02:25:44.442Z,44.00
2022-11-23T02:26:10.455Z,44.25
2022-11-23T02:26:35.636Z,44.35
2022-11-23T02:27:01.925Z,44.08
2022-11-23T02:27:23.998Z,44.13
2022-11-23T02:27:47.207Z,43.84
2022-11-23T02:28:10.174Z,43.84
2022-11-23T02:28:38.786Z,43.85
2022-11-23T02:29:05.855Z,43.92
2022-11-23T02:29:28.822Z,44.27
2022-11-23T02:29:58.925Z,44.14
2022-11-23T02:30:20.615Z,43.88
2022-11-23T02:30:44.464Z,44.07
2022-11-23T02:31:06.042Z,44.39
2022-11-23T02:31:28.666Z,44.06
2022-11-23T02:31:50.562Z,44.42
2022-11-23T02:32:12.542Z,44.08
2022-11-23T02:32:34.754Z,44.27
2022-11-23T02:32:57.927Z,44.22
2022-11-23T02:33:20.052Z,44.17
2022-11-23T02:33:43.284Z,44.05
2022-11-23T02:34:05.814Z,44.28
2022-11-23T02:34:28.531Z,44.72
2022-11-23T02:34:50.247Z,44.92
2022-11-23T02:35:12.355Z,44.71
2022-11-23T02:35:35.725Z,44.58
2022-11-23T02:35:59.057Z,44.81
2022-11-23T02:36:39.091Z,44.48
2022-11-23T02:37:02.283Z,44.53
2022-11-23T02:37:25.446Z,44.57
2022-11-23T02:37:48.985Z,44.54
2022-11-23T02:38:11.367Z,44.56
2022-11-23T02:38:34.037Z,44.63
2022-11-23T02:39:00.610Z,45.00
2022-11-23T02:39:30.395Z,44.67
2022-11-23T02:39:54.382Z,44.49
2022-11-23T02:40:25.910Z,44.73
2022-11-23T02:40:48.850Z,44.26
2022-11-23T02:41:11.789Z,44.56
2022-11-23T02:41:35.882Z,44.43
2022-11-23T02:41:58.471Z,44.44
2022-11-23T02:42:21.463Z,44.32
2022-11-23T02:42:44.712Z,44.50
2022-11-23T02:43:06.342Z,44.41
2022-11-23T02:43:27.998Z,44.48
2022-11-23T02:43:54.912Z,44.47
2022-11-23T02:44:37.359Z,44.08
2022-11-23T02:45:08.685Z,44.14
2022-11-23T02:45:37.829Z,44.36
2022-11-23T02:46:03.433Z,44.41
2022-11-23T02:46:25.979Z,44.52
2022-11-23T02:46:47.993Z,44.40
2022-11-23T02:47:11.034Z,44.24
2022-11-23T02:47:33.666Z,44.00
2022-11-23T02:47:56.591Z,44.30
2022-11-23T02:48:19.248Z,44.30
2022-11-23T02:48:40.822Z,44.29
2022-11-23T02:49:02.427Z,44.29
2022-11-23T02:49:24.028Z,44.33
2022-11-23T02:49:49.299Z,44.04
2022-11-23T02:50:10.867Z,43.93
2022-11-23T02:50:32.945Z,44.24
2022-11-23T02:50:55.592Z,44.02
2022-11-23T02:51:19.960Z,43.91
2022-11-23T02:51:41.592Z,43.87
2022-11-23T02:52:04.122Z,44.18
2022-11-23T02:52:25.738Z,44.04
2022-11-23T02:52:48.251Z,44.04
2022-11-23T02:53:11.010Z,44.02
2022-11-23T02:53:32.907Z,44.06
2022-11-23T02:53:54.509Z,44.34
2022-11-23T02:54:17.082Z,44.64
2022-11-23T02:54:38.756Z,44.46
2022-11-23T02:55:00.313Z,44.31
2022-11-23T02:55:21.924Z,44.42
2022-11-23T02:55:44.530Z,44.14
2022-11-23T02:56:06.406Z,44.21
2022-11-23T02:56:29.387Z,44.15
2022-11-23T02:56:50.975Z,44.20
2022-11-23T02:57:14.679Z,44.10
2022-11-23T02:57:40.169Z,43.92
2022-11-23T02:58:06.065Z,44.20
2022-11-23T02:58:28.646Z,44.39
2022-11-23T02:58:50.239Z,44.45
2022-11-23T02:59:12.860Z,44.38
2022-11-23T02:59:37.943Z,44.20
2022-11-23T03:00:02.025Z,44.09
2022-11-23T03:00:24.534Z,44.13
2022-11-23T03:00:46.203Z,44.19
2022-11-23T03:01:07.918Z,43.73
2022-11-23T03:01:30.883Z,43.93
2022-11-23T03:01:52.671Z,43.88
2022-11-23T03:02:14.304Z,43.65
2022-11-23T03:02:35.962Z,44.04
2022-11-23T03:02:59.783Z,43.98
2022-11-23T03:03:21.351Z,43.67
2022-11-23T03:03:42.918Z,43.75
2022-11-23T03:04:04.726Z,43.79
2022-11-23T03:04:28.135Z,43.95
2022-11-23T03:04:50.913Z,43.97
2022-11-23T03:05:15.040Z,43.87
2022-11-23T03:05:36.870Z,43.96
2022-11-23T03:06:01.563Z,44.30
2022-11-23T03:06:23.236Z,43.85
2022-11-23T03:06:45.056Z,43.94
2022-11-23T03:07:07.714Z,43.87
2022-11-23T03:07:29.957Z,44.07
2022-11-23T03:07:54.538Z,44.11
2022-11-23T03:08:16.163Z,44.05
2022-11-23T03:08:37.760Z,43.91
2022-11-23T03:08:59.331Z,44.01
2022-11-23T03:09:21.070Z,43.97
2022-11-23T03:09:43.667Z,44.14
2022-11-23T03:10:06.484Z,44.00
2022-11-23T03:10:28.185Z,44.19
2022-11-23T03:10:50.607Z,43.95
2022-11-23T03:11:14.007Z,43.91
2022-11-23T03:11:37.330Z,43.74
2022-11-23T03:11:58.927Z,43.87
2022-11-23T03:12:22.572Z,44.04
2022-11-23T03:12:45.199Z,43.76
2022-11-23T03:13:08.554Z,44.02
2022-11-23T03:13:32.302Z,43.99
2022-11-23T03:13:55.529Z,43.81
2022-11-23T03:14:18.672Z,43.71
2022-11-23T03:14:48.085Z,43.69
2022-11-23T03:15:10.448Z,43.84
2022-11-23T03:15:36.572Z,43.92
2022-11-23T03:15:59.843Z,43.84
2022-11-23T03:16:22.270Z,44.06
2022-11-23T03:16:43.891Z,44.07
2022-11-23T03:17:06.745Z,43.72
2022-11-23T03:17:33.057Z,43.59
2022-11-23T03:17:56.805Z,43.89
2022-11-23T03:18:18.555Z,43.93
2022-11-23T03:18:41.249Z,43.75
2022-11-23T03:19:04.187Z,44.11
2022-11-23T03:19:26.896Z,44.18
2022-11-23T03:19:48.911Z,43.99
2022-11-23T03:20:12.494Z,44.26
2022-11-23T03:20:37.635Z,44.04
2022-11-23T03:21:02.688Z,44.29
2022-11-23T03:21:24.275Z,44.26
2022-11-23T03:21:46.882Z,44.46
2022-11-23T03:22:08.715Z,44.32
2022-11-23T03:22:30.413Z,44.53
2022-11-23T03:22:52.235Z,44.31
2022-11-23T03:23:16.446Z,44.30
2022-11-23T03:23:38.987Z,44.05
2022-11-23T03:24:02.582Z,44.20
2022-11-23T03:24:24.193Z,44.44
2022-11-23T03:24:47.365Z,44.15
2022-11-23T03:25:12.276Z,44.32
2022-11-23T03:25:34.667Z,44.12
2022-11-23T03:25:56.894Z,44.30
2022-11-23T03:26:19.574Z,44.14
2022-11-23T03:26:51.181Z,44.35
2022-11-23T03:27:15.795Z,44.05
2022-11-23T03:27:38.756Z,44.22
2022-11-23T03:28:00.446Z,43.98
2022-11-23T03:28:22.593Z,44.43
2022-11-23T03:28:45.517Z,44.36
2022-11-23T03:29:08.091Z,44.30
2022-11-23T03:29:30.244Z,44.30
2022-11-23T03:29:54.299Z,44.32
2022-11-23T03:30:17.248Z,44.24
2022-11-23T03:30:38.890Z,44.50
2022-11-23T03:31:01.727Z,44.25
2022-11-23T03:31:23.502Z,44.06
2022-11-23T03:31:45.194Z,43.91
2022-11-23T03:32:10.563Z,43.85
2022-11-23T03:32:33.071Z,44.19
2022-11-23T03:32:54.711Z,44.05
2022-11-23T03:33:16.591Z,43.81
2022-11-23T03:33:39.535Z,43.81
2022-11-23T03:34:01.259Z,44.13
2022-11-23T03:34:25.626Z,43.83
2022-11-23T03:34:47.267Z,43.81
2022-11-23T03:35:11.480Z,44.10
2022-11-23T03:35:48.690Z,44.00
2022-11-23T03:36:20.607Z,44.44
2022-11-23T03:36:44.131Z,44.46
2022-11-23T03:37:05.734Z,44.14
2022-11-23T03:37:27.426Z,44.38
2022-11-23T03:37:50.025Z,44.83
2022-11-23T03:38:11.874Z,44.83
2022-11-23T03:38:33.515Z,44.48
2022-11-23T03:38:55.335Z,44.54
2022-11-23T03:39:34.464Z,44.55
2022-11-23T03:40:06.242Z,44.22
2022-11-23T03:40:46.580Z,44.34
2022-11-23T03:41:18.734Z,44.40
2022-11-23T03:41:45.617Z,44.41
2022-11-23T03:42:09.094Z,44.45
2022-11-23T03:42:32.046Z,44.77
2022-11-23T03:42:53.692Z,44.46
2022-11-23T03:43:16.260Z,44.65
2022-11-23T03:43:37.880Z,44.69
2022-11-23T03:43:59.683Z,44.49
2022-11-23T03:44:23.062Z,44.38
2022-11-23T03:44:44.738Z,44.71
2022-11-23T03:45:07.899Z,44.63
2022-11-23T03:45:29.554Z,44.61
2022-11-23T03:45:51.395Z,44.66
2022-11-23T03:46:14.307Z,44.29
2022-11-23T03:46:35.906Z,44.36
2022-11-23T03:46:57.563Z,44.28
2022-11-23T03:47:19.991Z,44.03
2022-11-23T03:47:42.641Z,43.91
2022-11-23T03:48:04.362Z,44.29
2022-11-23T03:48:25.986Z,44.12
2022-11-23T03:48:47.809Z,44.15
2022-11-23T03:49:10.482Z,44.05
2022-11-23T03:49:32.397Z,43.83
2022-11-23T03:49:54.411Z,43.96
2022-11-23T03:50:16.092Z,43.81
2022-11-23T03:50:38.704Z,44.03
2022-11-23T03:51:00.307Z,44.00
2022-11-23T03:51:22.983Z,43.81
2022-11-23T03:51:44.673Z,43.84
2022-11-23T03:52:06.302Z,44.21
2022-11-23T03:52:28.881Z,44.23
2022-11-23T03:52:50.703Z,44.15
2022-11-23T03:53:12.763Z,43.95
2022-11-23T03:53:34.819Z,44.08
2022-11-23T03:53:56.443Z,44.10
2022-11-23T03:54:19.051Z,44.44
2022-11-23T03:54:40.723Z,44.32
2022-11-23T03:55:02.385Z,44.27
2022-11-23T03:55:24.078Z,43.87
2022-11-23T03:55:48.189Z,44.00
2022-11-23T03:56:10.743Z,44.30
2022-11-23T03:56:36.733Z,44.60
2022-11-23T03:56:58.647Z,44.33
2022-11-23T03:57:22.580Z,44.31
2022-11-23T03:57:44.232Z,44.18
2022-11-23T03:58:05.957Z,43.80
2022-11-23T03:58:30.298Z,43.91
2022-11-23T03:58:53.578Z,44.21
2022-11-23T03:59:15.198Z,44.14
2022-11-23T03:59:37.123Z,43.89
2022-11-23T03:59:59.438Z,43.96
2022-11-23T04:00:21.798Z,44.21
2022-11-23T04:00:44.728Z,43.95
2022-11-23T04:01:09.112Z,44.23
2022-11-23T04:01:31.445Z,43.94
2022-11-23T04:01:57.446Z,44.18
2022-11-23T04:02:23.487Z,44.02
2022-11-23T04:02:55.613Z,44.34
2022-11-23T04:03:56.642Z,43.93
2022-11-23T04:04:44.058Z,44.20
2022-11-23T04:05:44.611Z,44.13
2022-11-23T04:06:24.525Z,43.99
2022-11-23T04:06:55.746Z,44.32
2022-11-23T04:07:22.672Z,44.30
2022-11-23T04:07:49.569Z,44.09
2022-11-23T04:08:11.282Z,44.22
2022-11-23T04:08:32.967Z,43.98
2022-11-23T04:09:01.519Z,43.99
2022-11-23T04:09:43.946Z,44.30
2022-11-23T04:10:19.759Z,44.22
2022-11-23T04:11:01.616Z,44.24
2022-11-23T04:11:31.610Z,44.47
2022-11-23T04:11:54.245Z,44.29
2022-11-23T04:12:15.877Z,44.18
2022-11-23T04:12:39.470Z,44.26
2022-11-23T04:13:02.724Z,44.00
2022-11-23T04:13:26.309Z,43.96
2022-11-23T04:13:48.156Z,44.05
2022-11-23T04:14:09.836Z,44.23
2022-11-23T04:14:31.514Z,44.35
2022-11-23T04:14:55.548Z,44.15
2022-11-23T04:15:17.319Z,44.36
2022-11-23T04:15:39.059Z,44.11
2022-11-23T04:16:00.648Z,43.91
2022-11-23T04:16:23.197Z,44.52
2022-11-23T04:16:45.091Z,44.06
2022-11-23T04:17:06.803Z,43.98
2022-11-23T04:17:28.425Z,43.96
2022-11-23T04:17:50.319Z,44.06
2022-11-23T04:18:12.929Z,44.20
2022-11-23T04:18:34.780Z,43.97
2022-11-23T04:18:56.461Z,43.98
2022-11-23T04:19:18.089Z,44.01
2022-11-23T04:19:40.682Z,44.24
2022-11-23T04:20:03.461Z,44.10
2022-11-23T04:20:25.297Z,43.83
2022-11-23T04:20:46.882Z,43.95
2022-11-23T04:21:08.522Z,43.94
2022-11-23T04:21:31.139Z,44.02
2022-11-23T04:21:53.199Z,44.07
2022-11-23T04:22:15.933Z,43.72
2022-11-23T04:22:38.478Z,44.15
2022-11-23T04:23:00.405Z,44.32
2022-11-23T04:23:25.028Z,43.99
2022-11-23T04:23:46.729Z,44.02
2022-11-23T04:24:09.814Z,44.22
2022-11-23T04:24:33.483Z,44.10
2022-11-23T04:24:58.656Z,44.29
2022-11-23T04:25:20.553Z,43.93
2022-11-23T04:25:45.133Z,44.03
2022-11-23T04:26:08.490Z,43.82
2022-11-23T04:26:33.742Z,44.04
2022-11-23T04:26:56.415Z,44.47
2022-11-23T04:27:19.381Z,44.57
2022-11-23T04:27:43.245Z,44.39
2022-11-23T04:28:04.891Z,44.27
2022-11-23T04:28:26.517Z,44.04
2022-11-23T04:28:48.343Z,43.87
2022-11-23T04:29:11.312Z,44.08
2022-11-23T04:29:36.435Z,43.97
2022-11-23T04:29:58.006Z,43.94
2022-11-23T04:30:19.800Z,44.21
2022-11-23T04:30:42.455Z,43.83
2022-11-23T04:31:04.750Z,44.04
2022-11-23T04:31:35.482Z,43.85
2022-11-23T04:32:05.946Z,43.70
2022-11-23T04:32:28.128Z,43.86
2022-11-23T04:32:49.842Z,43.58
2022-11-23T04:33:11.495Z,43.50
2022-11-23T04:33:34.808Z,43.82
2022-11-23T04:33:56.763Z,43.95
2022-11-23T04:34:20.111Z,43.91
2022-11-23T04:34:43.831Z,43.79
2022-11-23T04:35:08.143Z,43.41
2022-11-23T04:35:31.535Z,43.70
2022-11-23T04:35:53.473Z,43.48
2022-11-23T04:36:15.275Z,43.51
2022-11-23T04:36:37.552Z,43.63
2022-11-23T04:37:01.378Z,43.68
2022-11-23T04:37:28.988Z,43.68
2022-11-23T04:37:50.836Z,43.78
2022-11-23T04:38:13.634Z,43.85
2022-11-23T04:38:38.129Z,43.75
2022-11-23T04:38:59.814Z,43.80
2022-11-23T04:39:30.375Z,43.83
2022-11-23T04:40:08.695Z,43.64
2022-11-23T04:40:35.594Z,43.82
2022-11-23T04:40:58.418Z,43.76
2022-11-23T04:41:20.393Z,44.10
2022-11-23T04:41:43.066Z,44.06
2022-11-23T04:42:04.999Z,43.68
2022-11-23T04:42:28.190Z,43.85
2022-11-23T04:43:00.234Z,44.26
2022-11-23T04:43:24.993Z,43.98
2022-11-23T04:43:47.550Z,44.00
2022-11-23T04:44:09.436Z,43.89
2022-11-23T04:44:31.242Z,43.83
2022-11-23T04:44:58.382Z,44.01
2022-11-23T04:45:20.071Z,43.92
2022-11-23T04:45:42.089Z,43.58
2022-11-23T04:46:11.499Z,43.66
2022-11-23T04:46:35.593Z,43.51
2022-11-23T04:47:02.369Z,43.97
2022-11-23T04:47:24.104Z,43.84
2022-11-23T04:47:46.642Z,43.89
2022-11-23T04:48:10.751Z,43.71
2022-11-23T04:48:32.941Z,43.41
2022-11-23T04:48:54.514Z,43.75
2022-11-23T04:49:16.214Z,43.92
2022-11-23T04:49:39.601Z,43.70
2022-11-23T04:50:01.298Z,43.77
2022-11-23T04:50:23.334Z,43.90
2022-11-23T04:50:53.067Z,43.74
2022-11-23T04:51:24.006Z,43.91
2022-11-23T04:51:46.437Z,43.92
2022-11-23T04:52:09.823Z,43.99
2022-11-23T04:52:40.044Z,44.34
2022-11-23T04:53:08.272Z,43.97
2022-11-23T04:53:36.067Z,43.99
2022-11-23T04:53:57.706Z,43.81
2022-11-23T04:54:22.723Z,43.66
2022-11-23T04:54:49.734Z,43.85
2022-11-23T04:55:11.512Z,43.75
2022-11-23T04:55:42.536Z,43.91
2022-11-23T04:56:05.986Z,43.95
2022-11-23T04:56:31.771Z,43.68
2022-11-23T04:56:54.085Z,44.02
2022-11-23T04:57:16.668Z,44.01
2022-11-23T04:57:39.959Z,44.09
2022-11-23T04:58:03.117Z,44.21
2022-11-23T04:58:30.308Z,44.28
2022-11-23T04:58:56.876Z,44.11
2022-11-23T04:59:19.565Z,44.00
2022-11-23T04:59:41.249Z,44.06
2022-11-23T05:00:03.645Z,43.97
2022-11-23T05:00:29.485Z,44.24
2022-11-23T05:00:52.372Z,44.48
2022-11-23T05:01:14.177Z,44.14
2022-11-23T05:01:56.847Z,44.24
2022-11-23T05:02:37.178Z,43.95
2022-11-23T05:03:13.062Z,43.86
2022-11-23T05:03:37.271Z,43.92
2022-11-23T05:04:01.964Z,43.87
2022-11-23T05:04:23.597Z,44.08
2022-11-23T05:04:45.427Z,43.89
2022-11-23T05:05:09.938Z,43.78
2022-11-23T05:05:31.510Z,43.69
2022-11-23T05:05:54.077Z,44.11
2022-11-23T05:06:17.091Z,43.97
2022-11-23T05:06:38.695Z,43.95